Time;durP1;ratioP1;P1;durP2;ratioP2;P2;SDS_P1;SDS_P2;PMS_P1;PMS_P2;Temp;Humidity;BMP_temperature;BMP_pressure;BME280_temperature;BME280_humidity;BME280_pressure;Samples;Min_cycle;Max_cycle;Signal;HPM_P1;HPM_P2
2021/01/31 00:01:53;;;;;;;45.97;18.85;;;2.90;69.60;;;;;;5098662;28;20020;-67
2021/01/31 00:04:18;;;;;;;36.83;17.08;;;2.90;69.60;;;;;;5108269;28;20032;-67
2021/01/31 00:06:44;;;;;;;44.70;19.17;;;2.90;69.60;;;;;;5104238;28;20069;-67
2021/01/31 00:09:10;;;;;;;43.03;18.85;;;2.90;69.60;;;;;;5098700;28;20161;-67
2021/01/31 00:11:36;;;;;;;43.38;18.17;;;2.90;69.50;;;;;;5099089;28;20592;-67
2021/01/31 00:14:02;;;;;;;45.88;20.00;;;2.80;69.40;;;;;;5098462;28;20115;-67
2021/01/31 00:16:29;;;;;;;47.65;18.58;;;2.90;69.40;;;;;;5099186;28;20028;-67
2021/01/31 00:18:54;;;;;;;39.90;17.58;;;2.80;69.20;;;;;;5098909;28;20046;-67
2021/01/31 00:21:20;;;;;;;42.10;18.10;;;2.80;69.10;;;;;;5098296;28;20028;-67
2021/01/31 00:23:46;;;;;;;43.95;19.45;;;2.80;69.10;;;;;;5099042;28;20032;-67
2021/01/31 00:26:11;;;;;;;43.38;18.77;;;2.80;69.00;;;;;;5099283;28;20024;-67
2021/01/31 00:28:37;;;;;;;37.40;16.92;;;2.80;69.00;;;;;;5098425;28;20119;-67
2021/01/31 00:31:03;;;;;;;41.40;18.27;;;2.80;69.70;;;;;;5098508;28;20039;-68
2021/01/31 00:33:28;;;;;;;41.92;18.15;;;2.70;68.90;;;;;;5098695;28;20032;-67
2021/01/31 00:35:55;;;;;;;45.65;18.27;;;2.80;68.90;;;;;;5097752;28;20031;-67
2021/01/31 00:38:23;;;;;;;39.08;17.90;;;2.70;68.70;;;;;;5098980;28;20447;-67
2021/01/31 00:40:49;;;;;;;40.65;17.75;;;2.70;68.60;;;;;;5098904;28;20077;-67
2021/01/31 00:43:15;;;;;;;44.28;17.27;;;2.70;68.50;;;;;;5098132;28;20421;-67
2021/01/31 00:45:41;;;;;;;37.17;16.40;;;2.70;68.40;;;;;;5097069;28;20510;-67
2021/01/31 00:48:08;;;;;;;43.85;16.70;;;2.70;68.40;;;;;;5095540;28;20032;-67
2021/01/31 00:50:37;;;;;;;43.33;19.20;;;2.70;68.30;;;;;;5106771;28;20023;-67
2021/01/31 00:53:11;;;;;;;49.22;18.83;;;2.70;68.10;;;;;;5077746;28;20035;-67
2021/01/31 00:55:40;;;;;;;41.40;18.42;;;2.70;68.10;;;;;;5095445;28;20383;-67
2021/01/31 00:58:06;;;;;;;44.30;17.23;;;2.60;68.00;;;;;;5076477;28;20032;-67
2021/01/31 01:00:34;;;;;;;105.90;18.58;;;2.60;67.90;;;;;;5077168;28;20029;-67
2021/01/31 01:03:03;;;;;;;92.53;18.50;;;2.60;67.90;;;;;;5077005;28;20028;-67
2021/01/31 01:05:51;;;;;;;106.70;18.75;;;2.60;67.80;;;;;;5077653;28;20020;-67
2021/01/31 01:08:16;;;;;;;126.10;20.65;;;2.50;67.70;;;;;;5095439;28;20043;-67
2021/01/31 01:10:42;;;;;;;155.10;23.65;;;2.50;67.70;;;;;;5094519;28;20026;-67
2021/01/31 01:13:08;;;;;;;158.15;21.65;;;2.50;67.80;;;;;;5095124;28;20086;-67
2021/01/31 01:15:33;;;;;;;164.57;19.80;;;2.50;67.80;;;;;;5095091;28;20024;-67
2021/01/31 01:17:59;;;;;;;136.27;18.08;;;2.50;67.80;;;;;;5094561;28;20039;-67
2021/01/31 01:20:26;;;;;;;93.07;15.63;;;2.50;67.90;;;;;;5094801;28;20036;-67
2021/01/31 01:22:52;;;;;;;164.50;15.68;;;2.50;68.00;;;;;;5095172;28;20079;-67
2021/01/31 01:25:19;;;;;;;144.90;14.27;;;2.40;68.00;;;;;;5094337;28;20107;-67
2021/01/31 01:27:45;;;;;;;118.35;14.23;;;2.50;68.10;;;;;;5094867;28;20115;-67
2021/01/31 01:30:15;;;;;;;93.90;12.52;;;2.50;68.10;;;;;;5094821;28;20027;-66
2021/01/31 01:32:40;;;;;;;85.25;12.15;;;2.40;68.20;;;;;;5093995;28;20044;-67
2021/01/31 01:35:08;;;;;;;72.45;11.13;;;2.40;68.20;;;;;;5094959;28;20028;-67
2021/01/31 01:37:34;;;;;;;64.10;11.68;;;2.40;68.20;;;;;;5094348;28;20134;-67
2021/01/31 01:40:00;;;;;;;96.85;12.90;;;2.40;68.30;;;;;;5094072;28;20058;-67
2021/01/31 01:42:26;;;;;;;94.10;11.48;;;2.40;68.40;;;;;;5094536;28;20114;-67
2021/01/31 01:44:52;;;;;;;92.63;12.63;;;2.40;68.40;;;;;;5094509;28;20070;-67
2021/01/31 01:47:22;;;;;;;110.68;11.68;;;2.40;68.40;;;;;;5093989;28;20039;-67
2021/01/31 01:49:49;;;;;;;50.80;7.68;;;2.40;68.50;;;;;;5094343;28;20025;-67
2021/01/31 01:52:21;;;;;;;95.63;12.15;;;2.40;68.70;;;;;;5094371;28;20044;-67
2021/01/31 01:54:53;;;;;;;85.50;12.63;;;2.30;68.80;;;;;;5093732;28;20020;-67
2021/01/31 01:57:24;;;;;;;32.67;9.50;;;2.30;68.80;;;;;;5093442;28;20040;-67
2021/01/31 01:59:54;;;;;;;152.48;11.40;;;2.30;68.90;;;;;;5093506;28;20024;-67
2021/01/31 02:02:31;;;;;;;72.15;10.38;;;2.30;68.90;;;;;;5094402;28;20051;-67
2021/01/31 02:05:03;;;;;;;73.40;10.20;;;2.30;68.90;;;;;;5108351;28;20020;-67
2021/01/31 02:07:29;;;;;;;73.93;9.45;;;2.30;68.90;;;;;;5093558;28;20069;-67
2021/01/31 02:09:55;;;;;;;62.88;10.10;;;2.40;68.90;;;;;;5094014;28;20471;-67
2021/01/31 02:12:25;;;;;;;105.65;11.25;;;2.30;68.80;;;;;;5094015;28;20089;-67
2021/01/31 02:14:52;;;;;;;70.60;10.85;;;2.30;68.70;;;;;;5104995;28;20475;-67
2021/01/31 02:17:39;;;;;;;67.13;11.32;;;2.30;68.70;;;;;;5095934;28;20034;-67
2021/01/31 02:20:24;;;;;;;37.63;9.65;;;2.30;68.60;;;;;;5093840;28;20544;-67
2021/01/31 02:22:49;;;;;;;;;;;2.20;68.50;;;;;;5093769;28;20028;-67
2021/01/31 02:25:30;;;;;;;76.10;10.52;;;2.30;68.70;;;;;;5094000;28;19915;-67
2021/01/31 02:28:31;;;;;;;45.47;8.55;;;2.20;68.30;;;;;;5074963;28;20039;-67
2021/01/31 02:31:19;;;;;;;45.63;10.27;;;2.20;68.30;;;;;;5093815;28;20020;-67
2021/01/31 02:33:55;;;;;;;45.40;9.70;;;2.20;68.20;;;;;;5093584;28;20036;-67
2021/01/31 02:36:49;;;;;;;43.83;11.30;;;2.20;68.20;;;;;;5099435;28;20050;-67
2021/01/31 02:39:33;;;;;;;;;;;2.20;68.30;;;;;;5094063;28;20071;-67
2021/01/31 02:42:25;;;;;;;54.17;9.80;;;2.20;68.40;;;;;;5106154;28;19930;-67
2021/01/31 02:45:10;;;;;;;37.17;9.82;;;2.20;68.00;;;;;;5109781;28;21117;-67
2021/01/31 02:47:41;;;;;;;80.00;10.65;;;2.10;68.00;;;;;;5099716;28;20474;-67
2021/01/31 02:50:13;;;;;;;56.53;10.52;;;2.10;68.00;;;;;;5106336;28;20027;-67
2021/01/31 02:52:45;;;;;;;31.45;8.65;;;2.10;68.00;;;;;;5108000;28;20040;-67
2021/01/31 02:55:20;;;;;;;34.35;8.57;;;2.00;68.00;;;;;;5093236;28;20491;-67
2021/01/31 02:57:55;;;;;;;44.70;9.65;;;2.00;68.10;;;;;;5098477;28;20019;-67
2021/01/31 03:00:29;;;;;;;62.60;9.45;;;2.00;68.20;;;;;;5113854;28;20130;-67
2021/01/31 03:03:00;;;;;;;;;;;2.00;68.20;;;;;;5093131;28;20036;-67
2021/01/31 03:05:31;;;;;;;27.73;8.73;;;2.00;68.40;;;;;;5093308;28;19919;-67
2021/01/31 03:08:05;;;;;;;44.45;9.73;;;2.00;68.10;;;;;;5093031;28;20059;-67
2021/01/31 03:10:46;;;;;;;74.65;10.32;;;2.00;68.10;;;;;;5092029;28;20096;-67
2021/01/31 03:13:40;;;;;;;44.50;9.70;;;1.90;68.00;;;;;;5092871;28;20051;-67
2021/01/31 03:16:14;;;;;;;26.83;8.90;;;2.00;68.60;;;;;;5107058;28;20053;-68
2021/01/31 03:18:53;;;;;;;62.92;9.02;;;1.90;67.80;;;;;;5092267;28;20035;-67
2021/01/31 03:21:29;;;;;;;30.60;8.18;;;2.00;67.80;;;;;;5093022;28;20043;-67
2021/01/31 03:24:07;;;;;;;25.52;8.85;;;1.90;67.70;;;;;;5092308;28;20060;-67
2021/01/31 03:26:47;;;;;;;24.20;8.02;;;2.00;67.70;;;;;;5092699;28;20543;-67
2021/01/31 03:29:13;;;;;;;22.65;8.02;;;2.00;67.70;;;;;;5093096;28;20070;-67
2021/01/31 03:31:46;;;;;;;29.33;8.55;;;1.90;67.60;;;;;;5092063;28;20407;-67
2021/01/31 03:34:16;;;;;;;36.60;9.23;;;1.90;67.60;;;;;;5092965;28;20067;-67
2021/01/31 03:36:48;;;;;;;30.10;9.52;;;1.90;67.70;;;;;;5092450;28;20044;-67
2021/01/31 03:39:15;;;;;;;26.70;9.60;;;1.90;67.70;;;;;;5092032;28;20074;-67
2021/01/31 03:41:43;;;;;;;19.42;9.65;;;1.90;67.70;;;;;;5092799;28;20037;-67
2021/01/31 03:44:09;;;;;;;28.80;9.77;;;1.90;67.60;;;;;;5092826;28;20383;-67
2021/01/31 03:46:47;;;;;;;29.67;10.02;;;1.90;67.50;;;;;;5091818;28;20038;-67
2021/01/31 03:49:38;;;;;;;19.83;9.10;;;1.90;67.50;;;;;;5100704;28;20059;-67
2021/01/31 03:52:04;;;;;;;16.25;7.82;;;1.90;67.50;;;;;;5083189;28;20126;-67
2021/01/31 03:54:30;;;;;;;17.90;8.95;;;1.90;67.40;;;;;;5092829;28;20610;-67
2021/01/31 03:57:08;;;;;;;16.23;7.32;;;1.80;67.30;;;;;;5092451;28;20406;-67
2021/01/31 03:59:42;;;;;;;14.43;7.13;;;1.80;67.40;;;;;;5092029;28;20103;-67
2021/01/31 04:02:09;;;;;;;15.57;7.60;;;1.80;67.80;;;;;;5092414;28;20111;-67
2021/01/31 04:04:40;;;;;;;14.40;7.55;;;1.70;67.90;;;;;;5092559;28;20036;-67
2021/01/31 04:07:07;;;;;;;15.68;7.47;;;1.70;68.10;;;;;;5091662;28;20086;-67
2021/01/31 04:09:37;;;;;;;17.00;8.30;;;1.60;68.20;;;;;;5092634;28;20029;-67
2021/01/31 04:12:08;;;;;;;20.73;9.35;;;1.60;68.30;;;;;;5092476;28;20039;-67
2021/01/31 04:14:54;;;;;;;19.50;9.05;;;1.60;68.30;;;;;;5098599;28;20062;-67
2021/01/31 04:17:21;;;;;;;20.92;9.75;;;1.60;68.30;;;;;;5097054;28;20081;-67
2021/01/31 04:19:47;;;;;;;19.83;9.38;;;1.60;68.20;;;;;;5092577;28;20027;-67
2021/01/31 04:22:13;;;;;;;23.42;10.02;;;1.60;68.10;;;;;;5094540;28;20395;-67
2021/01/31 04:24:38;;;;;;;22.00;9.77;;;1.60;68.00;;;;;;5095851;28;20024;-67
2021/01/31 04:27:04;;;;;;;23.23;10.25;;;1.60;67.90;;;;;;5096142;28;20077;-67
2021/01/31 04:29:32;;;;;;;20.40;9.40;;;1.50;67.80;;;;;;5095230;28;20110;-67
2021/01/31 04:31:58;;;;;;;18.13;8.95;;;1.60;67.70;;;;;;5096115;28;20027;-67
2021/01/31 04:34:23;;;;;;;20.63;9.48;;;1.60;67.70;;;;;;5095040;28;20082;-67
2021/01/31 04:36:49;;;;;;;19.50;8.88;;;1.60;67.70;;;;;;5095805;28;20036;-67
2021/01/31 04:39:15;;;;;;;17.52;8.10;;;1.50;67.60;;;;;;5095951;28;20032;-67
2021/01/31 04:41:42;;;;;;;15.05;7.43;;;1.50;67.80;;;;;;5095004;28;20024;-67
2021/01/31 04:44:12;;;;;;;15.93;8.23;;;1.50;68.10;;;;;;5095739;28;20046;-67
2021/01/31 04:47:11;;;;;;;15.30;7.47;;;1.50;68.40;;;;;;5095510;28;20471;-67
2021/01/31 04:50:14;;;;;;;17.30;8.32;;;1.40;68.90;;;;;;5106692;28;20027;-67
2021/01/31 04:52:48;;;;;;;17.48;8.13;;;1.30;69.10;;;;;;5095568;28;20458;-67
2021/01/31 04:55:15;;;;;;;;;;;1.30;69.50;;;;;;5096018;28;20070;-67
2021/01/31 04:57:45;;;;;;;11.95;5.40;;;1.20;70.00;;;;;;5095465;28;19908;-67
2021/01/31 05:00:23;;;;;;;14.82;6.60;;;1.10;70.30;;;;;;5109589;28;20074;-68
2021/01/31 05:02:57;;;;;;;21.15;8.00;;;1.10;70.70;;;;;;5094731;28;20028;-67
2021/01/31 05:05:38;;;;;;;16.90;6.97;;;1.00;70.90;;;;;;5095541;28;20024;-67
2021/01/31 05:08:09;;;;;;;17.52;6.75;;;1.10;71.30;;;;;;5095546;28;20115;-67
2021/01/31 05:10:35;;;;;;;20.38;6.90;;;1.00;71.60;;;;;;5094526;28;20074;-68
2021/01/31 05:13:41;;;;;;;7.50;4.25;;;1.00;72.30;;;;;;5094853;28;20044;-67
2021/01/31 05:16:10;;;;;;;1.20;1.17;;;0.90;72.90;;;;;;5094927;28;20499;-67
2021/01/31 05:18:43;;;;;;;3.10;2.08;;;0.90;73.40;;;;;;5094587;28;20031;-66
2021/01/31 05:21:11;;;;;;;15.33;7.60;;;0.80;73.60;;;;;;5095013;28;20032;-66
2021/01/31 05:23:42;;;;;;;19.38;7.88;;;0.80;74.00;;;;;;5094229;28;20107;-67
2021/01/31 05:26:10;;;;;;;23.95;8.52;;;0.80;74.00;;;;;;5094985;28;20107;-67
2021/01/31 05:28:41;;;;;;;20.70;9.10;;;0.80;74.30;;;;;;5098655;28;20028;-67
2021/01/31 05:31:12;;;;;;;25.85;8.52;;;0.80;74.20;;;;;;5093939;28;20398;-67
2021/01/31 05:33:53;;;;;;;25.75;10.43;;;0.80;74.10;;;;;;5094442;28;20396;-67
2021/01/31 05:36:21;;;;;;;21.40;8.25;;;0.70;73.90;;;;;;5094583;28;20044;-68
2021/01/31 05:38:49;;;;;;;19.67;8.95;;;0.80;73.70;;;;;;5094228;28;20082;-67
2021/01/31 05:41:29;;;;;;;28.02;10.32;;;0.80;73.50;;;;;;5094635;28;20434;-67
2021/01/31 05:43:59;;;;;;;24.15;10.85;;;0.70;73.20;;;;;;5094631;28;20444;-67
2021/01/31 05:46:52;;;;;;;23.80;10.23;;;0.80;72.90;;;;;;5093560;28;20039;-67
2021/01/31 05:49:41;;;;;;;21.85;8.68;;;0.80;72.70;;;;;;5102735;28;20390;-67
2021/01/31 05:52:22;;;;;;;24.00;10.05;;;0.80;72.60;;;;;;5095689;28;20028;-67
2021/01/31 05:54:49;;;;;;;23.23;9.68;;;0.80;72.40;;;;;;5094429;28;20459;-67
2021/01/31 05:57:34;;;;;;;19.00;9.18;;;0.80;72.30;;;;;;5094391;28;20027;-67
2021/01/31 06:00:17;;;;;;;24.33;7.80;;;0.70;72.10;;;;;;5093824;28;20115;-67
2021/01/31 06:03:00;;;;;;;24.23;9.73;;;0.80;72.00;;;;;;5094122;28;20368;-67
2021/01/31 06:05:28;;;;;;;19.95;8.10;;;0.80;71.80;;;;;;5094046;28;20044;-67
2021/01/31 06:08:03;;;;;;;19.48;8.18;;;0.80;71.80;;;;;;5093663;28;20043;-67
2021/01/31 06:10:31;;;;;;;19.13;8.52;;;0.70;71.60;;;;;;5094137;28;20039;-67
2021/01/31 06:13:18;;;;;;;15.45;7.05;;;0.70;71.60;;;;;;5093334;28;20789;-67
2021/01/31 06:15:53;;;;;;;15.27;7.25;;;0.70;71.60;;;;;;5093811;28;20445;-67
2021/01/31 06:18:23;;;;;;;31.27;8.52;;;0.70;71.50;;;;;;5094270;28;20028;-67
2021/01/31 06:20:49;;;;;;;21.83;8.70;;;0.70;71.50;;;;;;5093208;28;20024;-67
2021/01/31 06:23:33;;;;;;;18.42;7.35;;;0.70;71.40;;;;;;5093974;28;20455;-67
2021/01/31 06:25:59;;;;;;;18.25;7.55;;;0.70;71.30;;;;;;5093584;28;20028;-67
2021/01/31 06:28:28;;;;;;;18.27;7.70;;;0.70;71.20;;;;;;5093137;28;20173;-67
2021/01/31 06:31:15;;;;;;;18.65;7.55;;;0.70;71.10;;;;;;5093979;28;20384;-67
2021/01/31 06:33:43;;;;;;;19.08;8.07;;;0.70;71.10;;;;;;5093550;28;20072;-67
2021/01/31 06:36:26;;;;;;;18.70;8.18;;;0.70;71.00;;;;;;5092922;28;20491;-67
2021/01/31 06:39:01;;;;;;;18.15;8.05;;;0.70;70.90;;;;;;5093887;28;20031;-67
2021/01/31 06:41:38;;;;;;;16.38;7.55;;;0.70;70.70;;;;;;5092872;28;20035;-68
2021/01/31 06:44:22;;;;;;;17.80;7.90;;;0.80;70.70;;;;;;5101384;28;20024;-67
2021/01/31 06:47:23;;;;;;;18.00;8.00;;;0.70;70.50;;;;;;5093362;28;20050;-67
2021/01/31 06:50:12;;;;;;;21.73;8.70;;;0.80;70.50;;;;;;5106202;28;20061;-67
2021/01/31 06:52:43;;;;;;;21.13;8.75;;;0.70;70.40;;;;;;5107463;28;20042;-67
2021/01/31 06:55:35;;;;;;;21.33;9.18;;;0.70;70.30;;;;;;5109078;28;20038;-67
2021/01/31 06:58:15;;;;;;;20.30;8.40;;;0.70;70.20;;;;;;5081947;28;20050;-67
2021/01/31 07:00:59;;;;;;;23.90;9.68;;;0.70;70.10;;;;;;5099135;28;20019;-66
2021/01/31 07:03:56;;;;;;;22.80;10.02;;;0.80;70.10;;;;;;5101297;28;20446;-66
2021/01/31 07:06:52;;;;;;;19.83;8.57;;;0.80;70.10;;;;;;5093328;28;20031;-66
2021/01/31 07:09:35;;;;;;;22.60;8.40;;;0.80;70.00;;;;;;5096206;28;20053;-66
2021/01/31 07:12:10;;;;;;;22.65;9.65;;;0.70;69.90;;;;;;5099215;28;20020;-66
2021/01/31 07:14:47;;;;;;;21.85;9.38;;;0.70;70.10;;;;;;5093169;28;20476;-66
2021/01/31 07:17:23;;;;;;;20.77;9.23;;;0.70;70.20;;;;;;5091490;28;20431;-66
2021/01/31 07:20:24;;;;;;;22.73;9.65;;;0.60;70.50;;;;;;5092935;28;20031;-66
2021/01/31 07:23:05;;;;;;;24.48;10.98;;;0.60;70.70;;;;;;5088260;28;20039;-66
2021/01/31 07:25:36;;;;;;;22.38;10.18;;;0.60;70.90;;;;;;5111916;28;20028;-66
2021/01/31 07:28:19;;;;;;;22.13;9.65;;;0.60;71.00;;;;;;5108887;28;20028;-66
2021/01/31 07:30:57;;;;;;;25.00;10.48;;;0.60;71.00;;;;;;5111313;28;20032;-66
2021/01/31 07:33:51;;;;;;;23.15;10.55;;;0.60;70.90;;;;;;5109291;28;20090;-67
2021/01/31 07:36:38;;;;;;;20.33;8.98;;;0.60;70.70;;;;;;5105774;28;20402;-67
2021/01/31 07:39:12;;;;;;;20.60;9.18;;;0.70;70.70;;;;;;5110510;28;20023;-67
2021/01/31 07:41:53;;;;;;;23.52;8.82;;;0.70;70.60;;;;;;5102915;28;20028;-66
2021/01/31 07:44:24;;;;;;;18.60;8.52;;;0.70;70.60;;;;;;5111608;28;20440;-66
2021/01/31 07:46:54;;;;;;;20.92;8.73;;;0.70;70.60;;;;;;5109884;28;20523;-66
2021/01/31 07:49:20;;;;;;;18.80;7.97;;;0.70;70.50;;;;;;5110168;28;20520;-66
2021/01/31 07:51:49;;;;;;;17.08;7.90;;;0.80;70.50;;;;;;5110449;28;20020;-67
2021/01/31 07:54:31;;;;;;;17.02;7.03;;;0.70;70.50;;;;;;5103622;28;20070;-67
2021/01/31 07:57:24;;;;;;;20.20;8.90;;;0.80;70.60;;;;;;5108773;28;20039;-67
2021/01/31 07:59:51;;;;;;;20.60;9.00;;;0.70;70.70;;;;;;5113266;28;20027;-68
2021/01/31 08:02:41;;;;;;;19.77;9.27;;;0.70;70.70;;;;;;5111966;28;20028;-68
2021/01/31 08:05:12;;;;;;;19.35;7.47;;;0.70;70.80;;;;;;5103356;28;20085;-68
2021/01/31 08:08:21;;;;;;;24.60;8.65;;;0.70;70.80;;;;;;5112762;28;20114;-68
2021/01/31 08:10:49;;;;;;;19.58;8.27;;;0.70;71.10;;;;;;5074227;28;20039;-69
2021/01/31 08:13:47;;;;;;;16.35;7.95;;;0.70;70.90;;;;;;5101073;28;20042;-69
2021/01/31 08:16:38;;;;;;;22.33;9.18;;;0.80;71.10;;;;;;5095473;28;20126;-69
2021/01/31 08:19:14;;;;;;;23.77;9.20;;;0.70;71.10;;;;;;5096192;28;20028;-69
2021/01/31 08:21:59;;;;;;;22.00;9.60;;;0.70;71.20;;;;;;5096086;28;20479;-68
2021/01/31 08:24:56;;;;;;;22.02;10.38;;;0.80;71.40;;;;;;5095972;28;20035;-67
2021/01/31 08:27:42;;;;;;;14.88;7.53;;;0.80;71.40;;;;;;5108231;28;20020;-75
2021/01/31 08:30:14;;;;;;;18.27;7.32;;;0.80;71.40;;;;;;5107167;28;20027;-67
2021/01/31 08:32:57;;;;;;;18.38;8.05;;;0.80;71.40;;;;;;5097981;28;20039;-67
2021/01/31 08:35:31;;;;;;;23.52;8.95;;;0.80;71.60;;;;;;5093593;28;20108;-67
2021/01/31 08:38:16;;;;;;;17.20;6.60;;;0.80;71.60;;;;;;5102990;28;20074;-67
2021/01/31 08:41:02;;;;;;;19.65;8.27;;;0.80;71.80;;;;;;5109809;28;20040;-67
2021/01/31 08:43:42;;;;;;;19.75;7.65;;;0.80;72.00;;;;;;5111538;28;20022;-67
2021/01/31 08:46:09;;;;;;;18.23;8.45;;;0.70;72.00;;;;;;5112364;28;20020;-67
2021/01/31 08:48:35;;;;;;;25.02;9.75;;;0.80;72.10;;;;;;5113377;28;20111;-67
2021/01/31 08:51:05;;;;;;;25.67;10.55;;;0.80;72.20;;;;;;5106767;28;20435;-67
2021/01/31 08:53:33;;;;;;;21.98;10.05;;;0.80;72.30;;;;;;5112103;28;20038;-67
2021/01/31 08:56:27;;;;;;;25.33;12.15;;;0.80;72.30;;;;;;5099867;28;20393;-67
2021/01/31 08:58:53;;;;;;;25.07;12.13;;;0.90;72.50;;;;;;5098441;28;20078;-67
2021/01/31 09:01:19;;;;;;;29.75;9.88;;;1.00;72.40;;;;;;5113141;28;20301;-67
2021/01/31 09:03:46;;;;;;;24.65;9.60;;;1.00;72.40;;;;;;5112021;28;20436;-66
2021/01/31 09:06:12;;;;;;;20.83;9.18;;;1.00;72.40;;;;;;5112522;28;20038;-67
2021/01/31 09:08:41;;;;;;;16.08;7.38;;;1.00;72.40;;;;;;5111177;28;20028;-67
2021/01/31 09:11:09;;;;;;;21.38;7.97;;;1.00;72.40;;;;;;5110866;28;20019;-66
2021/01/31 09:13:35;;;;;;;25.25;11.40;;;1.10;72.50;;;;;;5107826;28;20471;-67
2021/01/31 09:16:23;;;;;;;20.63;8.50;;;1.00;72.60;;;;;;5098352;28;20034;-69
2021/01/31 09:19:27;;;;;;;18.95;6.90;;;1.10;72.80;;;;;;5100295;28;20061;-81
2021/01/31 09:22:03;;;;;;;27.85;10.23;;;1.10;73.50;;;;;;5016106;28;20030;-67
2021/01/31 09:24:35;;;;;;;26.42;11.65;;;1.20;72.90;;;;;;5014421;28;20559;-66
2021/01/31 09:27:01;;;;;;;24.20;11.13;;;1.20;73.00;;;;;;5060839;28;20040;-66
2021/01/31 09:29:30;;;;;;;25.00;10.80;;;1.20;73.10;;;;;;5099402;28;20027;-68
2021/01/31 09:32:16;;;;;;;25.42;10.80;;;1.30;73.30;;;;;;5106449;28;20042;-67
2021/01/31 09:34:42;;;;;;;26.15;10.00;;;1.40;73.40;;;;;;5098424;28;20035;-67
2021/01/31 09:37:23;;;;;;;21.30;8.15;;;1.40;73.30;;;;;;5096037;28;20044;-66
2021/01/31 09:39:51;;;;;;;17.70;7.70;;;1.40;73.50;;;;;;5100008;28;20360;-66
2021/01/31 09:42:17;;;;;;;17.15;8.00;;;1.50;73.50;;;;;;5098233;28;20073;-66
2021/01/31 09:44:56;;;;;;;18.60;8.07;;;1.50;73.40;;;;;;5094495;28;20039;-66
2021/01/31 09:47:22;;;;;;;18.67;8.40;;;1.50;73.50;;;;;;5094669;28;20024;-68
2021/01/31 09:49:57;;;;;;;17.80;8.32;;;1.60;73.40;;;;;;5107754;28;20103;-69
2021/01/31 09:52:23;;;;;;;18.92;7.53;;;1.60;73.40;;;;;;5093516;28;20036;-68
2021/01/31 09:54:49;;;;;;;1.88;1.63;;;1.60;73.50;;;;;;5106454;28;20428;-69
2021/01/31 09:57:28;;;;;;;20.77;9.20;;;1.60;73.50;;;;;;5096007;28;20024;-67
2021/01/31 10:00:07;;;;;;;5.00;2.63;;;1.60;73.70;;;;;;5110314;28;20059;-69
2021/01/31 10:02:38;;;;;;;16.23;7.45;;;1.60;73.80;;;;;;5095523;28;20028;-66
2021/01/31 10:05:08;;;;;;;20.85;8.13;;;1.60;73.80;;;;;;5093569;28;20666;-66
2021/01/31 10:07:40;;;;;;;7.07;3.28;;;1.60;74.00;;;;;;5094120;28;20089;-67
2021/01/31 10:10:33;;;;;;;15.25;6.43;;;1.60;74.10;;;;;;5094107;28;20035;-75
2021/01/31 10:13:16;;;;;;;7.40;4.07;;;1.50;74.40;;;;;;5097927;28;20036;-67
2021/01/31 10:15:49;;;;;;;14.63;5.82;;;1.50;74.40;;;;;;5094580;28;20066;-67
2021/01/31 10:18:27;;;;;;;17.55;7.70;;;1.60;75.20;;;;;;5100159;28;20031;-73
2021/01/31 10:21:22;;;;;;;19.75;8.70;;;1.50;74.70;;;;;;5091888;28;20395;-68
2021/01/31 10:24:01;;;;;;;7.85;3.50;;;1.60;74.90;;;;;;5092512;28;20031;-65
2021/01/31 10:26:27;;;;;;;17.63;8.27;;;1.60;74.80;;;;;;5091960;28;20046;-68
2021/01/31 10:29:00;;;;;;;14.77;6.85;;;1.70;74.90;;;;;;5092723;28;20126;-68
2021/01/31 10:31:37;;;;;;;11.55;4.75;;;1.70;75.00;;;;;;5093125;28;20467;-67
2021/01/31 10:34:10;;;;;;;18.00;7.63;;;1.80;75.10;;;;;;5092660;28;20059;-68
2021/01/31 10:36:37;;;;;;;18.30;7.03;;;1.90;75.20;;;;;;5093393;28;20050;-68
2021/01/31 10:39:08;;;;;;;8.65;5.63;;;1.90;75.10;;;;;;5092897;28;20642;-65
2021/01/31 10:41:34;;;;;;;21.90;7.90;;;2.00;75.10;;;;;;5091510;28;20032;-67
2021/01/31 10:44:01;;;;;;;19.02;6.85;;;2.10;75.10;;;;;;5092217;28;20120;-68
2021/01/31 10:46:28;;;;;;;21.63;8.27;;;2.10;75.10;;;;;;5092056;28;20028;-68
2021/01/31 10:48:54;;;;;;;16.40;6.80;;;2.20;75.10;;;;;;5097748;28;20089;-66
2021/01/31 10:51:19;;;;;;;13.05;4.93;;;2.20;75.10;;;;;;5102151;28;20459;-66
2021/01/31 10:53:45;;;;;;;10.63;4.80;;;2.20;75.10;;;;;;5093287;28;20437;-73
2021/01/31 10:56:11;;;;;;;15.32;7.70;;;2.30;75.10;;;;;;5092618;28;20467;-67
2021/01/31 10:58:37;;;;;;;3.50;2.13;;;2.30;75.10;;;;;;5093128;28;20070;-69
2021/01/31 11:01:03;;;;;;;6.57;3.35;;;2.40;75.20;;;;;;5090385;28;20116;-69
2021/01/31 11:03:28;;;;;;;9.68;3.85;;;2.40;75.10;;;;;;5099917;28;20438;-71
2021/01/31 11:05:54;;;;;;;13.65;5.30;;;2.40;75.00;;;;;;5103840;28;20024;-66
2021/01/31 11:08:21;;;;;;;21.27;6.78;;;2.50;75.00;;;;;;5090397;28;20138;-68
2021/01/31 11:10:48;;;;;;;18.80;7.38;;;2.50;75.10;;;;;;5103295;28;20400;-67
2021/01/31 11:13:14;;;;;;;18.98;8.25;;;2.50;75.20;;;;;;5092932;28;20104;-67
2021/01/31 11:15:40;;;;;;;18.52;7.90;;;2.60;75.40;;;;;;5092039;28;20460;-66
2021/01/31 11:18:05;;;;;;;16.08;7.82;;;2.70;75.60;;;;;;5093133;28;20035;-67
2021/01/31 11:20:31;;;;;;;20.92;7.22;;;2.80;75.60;;;;;;5092934;28;20044;-67
2021/01/31 11:22:57;;;;;;;21.17;8.90;;;2.80;75.40;;;;;;5092024;28;20106;-67
2021/01/31 11:25:22;;;;;;;16.95;7.32;;;2.90;75.30;;;;;;5092912;28;20111;-66
2021/01/31 11:27:48;;;;;;;18.55;8.00;;;3.00;75.30;;;;;;5092616;28;20463;-66
2021/01/31 11:30:14;;;;;;;20.30;9.48;;;3.00;75.40;;;;;;5091715;28;20035;-69
2021/01/31 11:32:40;;;;;;;18.80;8.90;;;3.10;75.50;;;;;;5095883;28;20040;-67
2021/01/31 11:35:06;;;;;;;18.35;8.57;;;3.20;75.50;;;;;;5076576;28;20036;-68
2021/01/31 11:37:31;;;;;;;21.63;8.32;;;3.30;75.40;;;;;;5092682;28;20518;-68
2021/01/31 11:39:57;;;;;;;15.65;7.78;;;3.40;75.40;;;;;;5092445;28;20055;-67
2021/01/31 11:42:23;;;;;;;22.52;9.35;;;3.50;75.50;;;;;;5092447;28;20031;-68
2021/01/31 11:44:48;;;;;;;17.80;8.73;;;3.60;75.40;;;;;;5091717;28;20052;-68
2021/01/31 11:47:14;;;;;;;19.40;9.40;;;3.60;75.30;;;;;;5092834;28;20450;-68
2021/01/31 11:49:40;;;;;;;14.00;6.63;;;3.70;75.40;;;;;;5104316;28;20043;-67
2021/01/31 11:52:06;;;;;;;16.25;7.85;;;3.70;75.30;;;;;;5107473;28;20104;-67
2021/01/31 11:54:31;;;;;;;10.57;5.80;;;3.80;75.20;;;;;;5109734;28;20034;-69
2021/01/31 11:56:58;;;;;;;13.35;6.03;;;3.80;75.10;;;;;;5096685;28;20028;-68
2021/01/31 11:59:24;;;;;;;14.35;7.50;;;3.80;75.10;;;;;;5092443;28;20548;-67
2021/01/31 12:01:49;;;;;;;13.93;7.45;;;3.90;75.30;;;;;;5096237;28;20107;-67
2021/01/31 12:04:15;;;;;;;17.63;7.55;;;3.90;75.10;;;;;;5109142;28;20032;-68
2021/01/31 12:06:42;;;;;;;15.57;7.53;;;4.00;75.00;;;;;;5103339;28;20023;-67
2021/01/31 12:09:08;;;;;;;13.05;7.43;;;4.10;74.90;;;;;;5102518;28;20031;-68
2021/01/31 12:11:33;;;;;;;16.95;8.60;;;4.10;74.80;;;;;;5104597;28;20073;-68
2021/01/31 12:13:59;;;;;;;16.23;7.03;;;4.10;74.70;;;;;;5107469;28;20040;-74
2021/01/31 12:16:25;;;;;;;15.35;6.93;;;4.20;74.60;;;;;;5107569;28;20022;-67
2021/01/31 12:18:51;;;;;;;15.98;7.38;;;4.20;74.50;;;;;;5092643;28;20036;-70
2021/01/31 12:21:18;;;;;;;16.00;7.63;;;4.20;74.40;;;;;;5091099;28;20115;-83
2021/01/31 12:23:43;;;;;;;19.48;9.82;;;4.20;74.30;;;;;;5094000;28;20019;-70
2021/01/31 12:26:09;;;;;;;16.80;8.85;;;4.20;74.30;;;;;;5095852;28;20028;-71
2021/01/31 12:28:35;;;;;;;15.02;7.53;;;4.20;74.40;;;;;;5090778;28;20032;-70
2021/01/31 12:31:01;;;;;;;15.00;7.95;;;4.20;74.40;;;;;;5103986;28;20051;-68
2021/01/31 12:33:26;;;;;;;21.98;8.68;;;4.20;74.50;;;;;;5092805;28;20058;-68
2021/01/31 12:35:52;;;;;;;15.32;9.05;;;4.30;74.70;;;;;;5097721;28;20028;-68
2021/01/31 12:38:18;;;;;;;15.82;7.93;;;4.30;74.60;;;;;;5092053;28;20036;-67
2021/01/31 12:40:43;;;;;;;14.02;5.40;;;4.30;74.50;;;;;;5095997;28;20026;-68
2021/01/31 12:43:09;;;;;;;16.20;7.63;;;4.30;74.60;;;;;;5097579;28;20026;-68
2021/01/31 12:45:35;;;;;;;11.82;5.47;;;4.30;74.60;;;;;;5112298;28;20643;-69
2021/01/31 12:48:01;;;;;;;13.10;6.65;;;4.40;74.50;;;;;;5096363;28;20442;-71
2021/01/31 12:50:29;;;;;;;12.02;6.63;;;4.40;74.20;;;;;;5109029;28;20062;-68
2021/01/31 12:52:55;;;;;;;16.77;7.32;;;4.50;73.80;;;;;;5094507;28;20147;-70
2021/01/31 12:55:21;;;;;;;14.63;7.43;;;4.40;73.20;;;;;;5105268;28;20522;-70
2021/01/31 12:57:47;;;;;;;16.50;7.75;;;4.50;73.10;;;;;;5101474;28;20118;-70
2021/01/31 13:00:16;;;;;;;16.08;7.72;;;4.50;73.00;;;;;;5099045;28;20103;-69
2021/01/31 13:02:41;;;;;;;21.73;9.32;;;4.50;73.00;;;;;;5099100;28;20024;-69
2021/01/31 13:05:09;;;;;;;17.35;8.82;;;4.50;73.00;;;;;;5097898;28;20024;-69
2021/01/31 13:07:35;;;;;;;17.02;6.78;;;4.50;73.00;;;;;;5111466;28;20028;-72
2021/01/31 13:10:01;;;;;;;15.57;7.47;;;4.60;73.10;;;;;;5097707;28;20116;-69
2021/01/31 13:12:26;;;;;;;15.70;7.75;;;4.60;73.40;;;;;;5106359;28;20489;-68
2021/01/31 13:14:52;;;;;;;13.68;6.07;;;4.60;73.50;;;;;;5094634;28;20036;-69